createdAt,value
2023-05-10T00:00:29.269Z,2.15
2023-05-10T00:05:30.019Z,1.88
2023-05-10T00:10:32.033Z,2.03
2023-05-10T00:15:32.753Z,1.85
2023-05-10T00:20:33.445Z,1.83
2023-05-10T00:25:35.525Z,1.90
2023-05-10T00:30:36.163Z,1.88
2023-05-10T00:35:37.030Z,2.17
2023-05-10T00:40:39.110Z,2.47
2023-05-10T00:45:45.725Z,1.92
2023-05-10T00:50:46.836Z,1.77
2023-05-10T00:55:48.940Z,1.88
2023-05-10T01:00:50.278Z,1.92
2023-05-10T01:05:51.477Z,1.65
2023-05-10T01:10:53.872Z,1.83
2023-05-10T01:15:54.807Z,1.98
2023-05-10T01:21:06.493Z,1.65
2023-05-10T01:26:27.150Z,2.08
2023-05-10T01:31:42.744Z,1.45
2023-05-10T01:36:50.153Z,1.60
2023-05-10T01:41:56.900Z,1.75
2023-05-10T01:47:03.617Z,1.63
2023-05-10T01:52:12.813Z,1.90
2023-05-10T01:57:16.346Z,1.63
2023-05-10T02:02:17.536Z,1.73
2023-05-10T02:07:22.122Z,1.58
2023-05-10T02:12:24.308Z,1.55
2023-05-10T02:17:27.038Z,1.85
2023-05-10T02:22:30.161Z,2.03
2023-05-10T02:27:32.413Z,1.73
2023-05-10T02:32:33.529Z,1.70
2023-05-10T02:37:37.744Z,1.60
2023-05-10T02:42:40.724Z,1.77
2023-05-10T02:47:41.550Z,1.75
2023-05-10T02:52:48.713Z,1.75
2023-05-10T02:57:54.585Z,2.17
2023-05-10T03:02:55.769Z,1.80
2023-05-10T03:07:58.770Z,1.85
2023-05-10T03:13:09.597Z,1.73
2023-05-10T03:18:14.039Z,1.83
2023-05-10T03:23:25.283Z,1.90
2023-05-10T03:28:27.836Z,1.88
2023-05-10T03:33:28.693Z,1.77
2023-05-10T03:38:30.857Z,1.85
2023-05-10T03:43:31.766Z,1.70
2023-05-10T03:48:32.552Z,2.40
2023-05-10T03:53:34.686Z,1.77
2023-05-10T03:58:35.420Z,1.92
2023-05-10T04:03:37.449Z,2.10
2023-05-10T04:08:40.470Z,1.83
2023-05-10T04:13:41.373Z,1.60
2023-05-10T04:18:42.077Z,2.15
2023-05-10T04:23:44.115Z,1.92
2023-05-10T04:28:44.839Z,1.77
2023-05-10T04:33:45.607Z,1.65
2023-05-10T04:38:47.738Z,1.42
2023-05-10T04:43:50.057Z,1.63
2023-05-10T04:48:50.760Z,2.08
2023-05-10T04:54:05.151Z,1.58
2023-05-10T04:59:06.959Z,1.30
2023-05-10T05:04:07.825Z,2.05
2023-05-10T05:09:11.161Z,1.48
2023-05-10T05:14:11.872Z,1.80
2023-05-10T05:19:12.638Z,1.58
2023-05-10T05:24:14.663Z,1.58
2023-05-10T05:29:15.419Z,1.40
2023-05-10T05:34:16.141Z,1.73
2023-05-10T05:39:18.233Z,1.85
2023-05-10T05:44:18.907Z,1.65
2023-05-10T05:49:19.555Z,1.50
2023-05-10T05:54:21.559Z,1.58
2023-05-10T05:59:22.262Z,1.63
2023-05-10T06:04:23.253Z,2.50
2023-05-10T06:09:25.821Z,1.90
2023-05-10T06:14:26.566Z,1.50
2023-05-10T06:19:27.490Z,1.83
2023-05-10T06:24:29.558Z,2.00
2023-05-10T06:29:30.325Z,1.98
2023-05-10T06:34:31.191Z,2.08
2023-05-10T06:39:33.822Z,1.83
2023-05-10T06:44:34.616Z,1.73
2023-05-10T06:49:35.310Z,1.95
2023-05-10T06:54:37.382Z,1.90
2023-05-10T06:59:38.442Z,2.15
2023-05-10T07:04:39.365Z,2.00
2023-05-10T07:09:41.451Z,2.00
2023-05-10T07:14:42.223Z,2.00
2023-05-10T07:19:42.922Z,2.22
2023-05-10T07:24:45.267Z,1.90
2023-05-10T07:29:47.134Z,1.92
2023-05-10T07:34:47.898Z,2.15
2023-05-10T07:39:49.996Z,1.98
2023-05-10T07:44:50.675Z,1.65
2023-05-10T07:49:51.365Z,2.15
2023-05-10T07:54:53.389Z,3.00
2023-05-10T07:59:54.076Z,2.20
2023-05-10T08:04:54.772Z,2.50
2023-05-10T08:09:56.885Z,2.50
2023-05-10T08:14:58.058Z,2.10
2023-05-10T08:19:58.794Z,2.30
2023-05-10T08:25:00.782Z,3.30
2023-05-10T08:30:01.663Z,2.45
2023-05-10T08:35:02.929Z,2.45
2023-05-10T08:40:05.555Z,2.50
2023-05-10T08:45:09.035Z,2.08
2023-05-10T08:50:10.580Z,2.38
2023-05-10T08:55:12.599Z,2.33
2023-05-10T09:00:15.361Z,2.50
2023-05-10T09:05:17.362Z,2.53
2023-05-10T09:10:20.104Z,2.40
2023-05-10T09:15:21.200Z,2.40
2023-05-10T09:20:22.383Z,2.08
2023-05-10T09:25:24.564Z,2.30
2023-05-10T09:30:27.528Z,2.10
2023-05-10T09:35:30.224Z,2.25
2023-05-10T09:40:33.485Z,2.55
2023-05-10T09:45:38.618Z,2.60
2023-05-10T09:50:39.847Z,2.30
2023-05-10T09:55:45.693Z,2.35
2023-05-10T10:00:52.291Z,2.38
2023-05-10T10:05:54.274Z,3.10
2023-05-10T10:10:56.401Z,2.50
2023-05-10T10:15:57.214Z,2.40
2023-05-10T10:20:59.049Z,2.70
2023-05-10T10:26:01.899Z,2.30
2023-05-10T10:31:17.828Z,3.08
2023-05-10T10:36:18.660Z,2.80
2023-05-10T10:41:31.754Z,2.50
2023-05-10T10:46:33.012Z,2.83
2023-05-10T10:51:33.731Z,2.75
2023-05-10T10:56:37.208Z,2.53
2023-05-10T11:01:38.164Z,2.33
2023-05-10T11:06:39.127Z,2.50
2023-05-10T11:11:51.425Z,2.53
2023-05-10T11:16:52.469Z,2.13
2023-05-10T11:22:14.168Z,2.22
2023-05-10T11:27:16.307Z,2.60
2023-05-10T11:32:17.076Z,2.33
2023-05-10T11:37:17.736Z,2.20
2023-05-10T11:42:19.771Z,2.00
2023-05-10T11:47:20.923Z,2.28
2023-05-10T11:52:21.727Z,2.58
2023-05-10T11:57:28.777Z,2.60
2023-05-10T12:02:29.643Z,2.60
2023-05-10T12:07:30.486Z,2.40
2023-05-10T12:12:39.658Z,2.70
2023-05-10T12:17:43.348Z,2.97
2023-05-10T12:22:46.704Z,2.78
2023-05-10T12:27:57.029Z,2.25
2023-05-10T12:33:02.464Z,2.60
2023-05-10T12:38:03.154Z,2.47
2023-05-10T12:43:05.193Z,2.78
2023-05-10T12:48:06.254Z,2.55
2023-05-10T12:53:06.941Z,2.35
2023-05-10T12:58:09.011Z,2.78
2023-05-10T13:03:09.721Z,2.97
2023-05-10T13:08:10.489Z,2.80
2023-05-10T13:13:12.615Z,2.80
2023-05-10T13:18:13.366Z,2.40
2023-05-10T13:23:16.090Z,2.25
2023-05-10T13:28:18.161Z,2.40
2023-05-10T13:33:18.905Z,2.53
2023-05-10T13:38:21.078Z,2.10
2023-05-10T13:43:26.281Z,2.67
2023-05-10T13:48:26.932Z,2.13
2023-05-10T13:53:27.786Z,2.00
2023-05-10T13:58:29.862Z,2.45
2023-05-10T14:03:30.576Z,2.22
2023-05-10T14:08:31.343Z,2.92
2023-05-10T14:13:33.864Z,2.40
2023-05-10T14:18:34.700Z,2.00
2023-05-10T14:23:35.667Z,2.25
2023-05-10T14:28:37.737Z,2.30
2023-05-10T14:33:38.432Z,2.47
2023-05-10T14:38:39.203Z,2.40
2023-05-10T14:43:41.314Z,2.28
2023-05-10T14:48:41.944Z,2.90
2023-05-10T14:53:42.625Z,2.63
2023-05-10T14:58:44.594Z,2.30
2023-05-10T15:03:45.346Z,1.98
2023-05-10T15:08:46.373Z,2.42
2023-05-10T15:13:48.380Z,2.58
2023-05-10T15:18:49.276Z,2.70
2023-05-10T15:23:50.200Z,3.05
2023-05-10T15:28:52.256Z,2.35
2023-05-10T15:33:55.084Z,2.70
2023-05-10T15:38:55.874Z,2.42
2023-05-10T15:43:58.173Z,2.35
2023-05-10T15:48:59.478Z,3.25
2023-05-10T15:54:07.094Z,2.53
2023-05-10T15:59:11.598Z,2.40
2023-05-10T16:04:12.504Z,2.95
2023-05-10T16:09:13.160Z,2.55
2023-05-10T16:14:16.381Z,2.80
2023-05-10T16:19:17.108Z,2.47
2023-05-10T16:24:17.877Z,3.20
2023-05-10T16:29:19.974Z,2.92
2023-05-10T16:34:24.217Z,2.80
2023-05-10T16:39:24.919Z,2.90
2023-05-10T16:44:26.972Z,2.70
2023-05-10T16:49:27.599Z,2.55
2023-05-10T16:54:29.469Z,2.05
2023-05-10T16:59:31.412Z,2.75
2023-05-10T17:04:32.216Z,2.58
2023-05-10T17:09:32.855Z,2.50
2023-05-10T17:14:35.086Z,3.00
2023-05-10T17:19:36.204Z,2.58
2023-05-10T17:24:36.885Z,2.88
2023-05-10T17:29:38.944Z,2.40
2023-05-10T17:34:40.075Z,2.50
2023-05-10T17:39:40.741Z,3.10
2023-05-10T17:44:42.745Z,3.00
2023-05-10T17:49:44.541Z,2.67
2023-05-10T17:54:45.163Z,2.50
2023-05-10T17:59:47.184Z,2.60
2023-05-10T18:04:49.424Z,2.08
2023-05-10T18:09:50.214Z,2.40
2023-05-10T18:14:52.527Z,1.92
2023-05-10T18:19:53.584Z,1.63
2023-05-10T18:24:54.315Z,1.83
2023-05-10T18:29:56.335Z,1.75
2023-05-10T18:34:58.226Z,1.45
2023-05-10T18:39:58.929Z,1.55
2023-05-10T18:45:00.992Z,1.20
2023-05-10T18:50:01.634Z,1.27
2023-05-10T19:00:32.558Z,1.52
2023-05-10T19:05:33.242Z,1.67
2023-05-10T19:10:34.102Z,1.58
2023-05-10T19:15:36.228Z,2.00
2023-05-10T19:20:38.498Z,2.10
2023-05-10T19:25:42.268Z,2.17
2023-05-10T19:30:44.320Z,1.83
2023-05-10T19:35:44.953Z,2.35
2023-05-10T19:40:46.898Z,1.70
2023-05-10T19:45:49.037Z,1.83
2023-05-10T19:50:49.683Z,1.98
2023-05-10T19:55:50.379Z,2.10
2023-05-10T20:00:52.466Z,2.08
2023-05-10T20:05:53.412Z,1.92
2023-05-10T20:10:54.193Z,2.88
2023-05-10T20:15:58.082Z,3.25
2023-05-10T20:21:00.955Z,2.70
2023-05-10T20:26:01.727Z,2.63
2023-05-10T20:31:03.801Z,3.17
2023-05-10T20:36:05.023Z,3.00
2023-05-10T20:41:05.673Z,2.85
2023-05-10T20:46:07.759Z,3.17
2023-05-10T20:51:08.472Z,2.40
2023-05-10T20:56:09.157Z,2.70
2023-05-10T21:01:11.900Z,2.95
2023-05-10T21:06:12.529Z,3.15
2023-05-10T21:11:13.188Z,2.80
2023-05-10T21:16:15.295Z,2.78
2023-05-10T21:21:15.948Z,3.05
2023-05-10T21:26:16.923Z,3.00
2023-05-10T21:31:18.980Z,3.15
2023-05-10T21:36:19.741Z,3.38
2023-05-10T21:41:21.725Z,3.63
2023-05-10T21:46:23.895Z,3.10
2023-05-10T21:51:24.589Z,3.72
2023-05-10T21:56:25.301Z,3.55
2023-05-10T22:01:27.391Z,3.30
2023-05-10T22:06:28.088Z,3.08
2023-05-10T22:11:28.728Z,3.42
2023-05-10T22:16:31.004Z,3.60
2023-05-10T22:21:31.897Z,3.85
2023-05-10T22:26:32.564Z,3.97
2023-05-10T22:31:34.772Z,4.05
2023-05-10T22:36:35.516Z,4.25
2023-05-10T22:41:36.167Z,4.22
2023-05-10T22:46:38.246Z,3.97
2023-05-10T22:51:38.992Z,4.32
2023-05-10T22:56:39.678Z,4.25
2023-05-10T23:01:41.841Z,3.88
2023-05-10T23:06:42.553Z,4.00
2023-05-10T23:11:43.209Z,4.00
2023-05-10T23:16:45.288Z,4.65
2023-05-10T23:21:46.011Z,4.40
2023-05-10T23:26:47.318Z,4.60
2023-05-10T23:31:51.327Z,4.53
2023-05-10T23:36:52.003Z,5.00
2023-05-10T23:41:52.763Z,4.70
2023-05-10T23:46:54.770Z,5.40
2023-05-10T23:51:55.461Z,5.13
2023-05-10T23:56:56.112Z,6.03
